Time;durP1;ratioP1;P1;durP2;ratioP2;P2;SDS_P1;SDS_P2;PMS_P1;PMS_P2;Temp;Humidity;BMP_temperature;BMP_pressure;BME280_temperature;BME280_humidity;BME280_pressure;Samples;Min_cycle;Max_cycle;Signal;HPM_P1;HPM_P2
2022/09/04 00:00:42;;;;;;;1.92;1.50;;;18.70;99.90;;;;;;5053123;28;20239;-56
2022/09/04 00:03:21;;;;;;;1.30;1.20;;;18.60;99.90;;;;;;5052710;28;20205;-57
2022/09/04 00:05:50;;;;;;;2.55;1.52;;;18.50;99.90;;;;;;5052031;28;20209;-56
2022/09/04 00:08:29;;;;;;;3.95;1.75;;;18.40;99.90;;;;;;5052845;28;20263;-56
2022/09/04 00:11:04;;;;;;;1.95;1.70;;;18.40;99.90;;;;;;5052359;28;20201;-56
2022/09/04 00:13:36;;;;;;;2.72;1.77;;;18.40;99.90;;;;;;5052554;28;20212;-57
2022/09/04 00:16:08;;;;;;;2.03;1.65;;;18.30;99.90;;;;;;5052015;28;20226;-56
2022/09/04 00:18:40;;;;;;;3.00;1.80;;;18.30;99.90;;;;;;5052354;28;20707;-56
2022/09/04 00:21:13;;;;;;;2.45;1.77;;;18.20;99.90;;;;;;5052437;28;20274;-56
2022/09/04 00:23:44;;;;;;;3.65;1.77;;;18.10;99.90;;;;;;5052088;28;20670;-57
2022/09/04 00:26:20;;;;;;;2.08;1.88;;;18.00;99.90;;;;;;5052172;28;20308;-57
2022/09/04 00:28:49;;;;;;;2.42;2.08;;;17.90;99.90;;;;;;5052091;28;20212;-56
2022/09/04 00:31:25;;;;;;;4.45;3.58;;;17.70;99.90;;;;;;5052244;28;20208;-57
2022/09/04 00:34:06;;;;;;;2.10;1.67;;;17.70;99.90;;;;;;5051833;28;20643;-57
2022/09/04 00:36:36;;;;;;;2.33;2.13;;;17.70;99.90;;;;;;5051998;28;20247;-56
2022/09/04 00:39:10;;;;;;;2.30;1.90;;;17.70;99.90;;;;;;5051976;28;20600;-57
2022/09/04 00:41:51;;;;;;;2.55;1.83;;;17.60;99.90;;;;;;5052195;28;20228;-57
2022/09/04 00:44:41;;;;;;;4.60;1.77;;;17.60;99.90;;;;;;5051838;28;20206;-58
2022/09/04 00:48:00;;;;;;;1.85;1.63;;;17.60;99.90;;;;;;5050832;28;20225;-56
2022/09/04 00:50:54;;;;;;;2.70;1.95;;;17.60;99.90;;;;;;5051600;28;20685;-56
2022/09/04 00:53:34;;;;;;;2.30;2.10;;;17.70;99.90;;;;;;5045660;28;20283;-56
2022/09/04 00:56:15;;;;;;;3.17;1.85;;;17.70;99.90;;;;;;5051560;28;20221;-55
2022/09/04 00:58:54;;;;;;;2.22;1.83;;;17.60;99.90;;;;;;5051892;28;20209;-57
2022/09/04 01:01:23;;;;;;;2.72;2.05;;;17.60;99.90;;;;;;5051840;28;20258;-56
2022/09/04 01:04:11;;;;;;;2.75;2.40;;;17.60;99.90;;;;;;5051452;28;20288;-56
2022/09/04 01:06:45;;;;;;;3.78;2.20;;;17.70;99.90;;;;;;5051822;28;20226;-56
2022/09/04 01:09:43;;;;;;;3.38;1.80;;;17.60;99.90;;;;;;5051780;28;20209;-56
2022/09/04 01:12:23;;;;;;;2.50;2.03;;;17.60;99.90;;;;;;5051703;28;20240;-56
2022/09/04 01:14:56;;;;;;;2.10;1.85;;;17.60;99.90;;;;;;5051664;28;20232;-56
2022/09/04 01:17:31;;;;;;;2.72;2.20;;;17.60;99.90;;;;;;5051483;28;20306;-58
2022/09/04 01:20:06;;;;;;;2.35;2.10;;;17.50;99.90;;;;;;5051781;28;20205;-56
2022/09/04 01:22:49;;;;;;;2.28;1.88;;;17.50;99.90;;;;;;5051427;28;20703;-58
2022/09/04 01:25:32;;;;;;;3.85;2.35;;;17.50;99.90;;;;;;5051479;28;20245;-55
2022/09/04 01:28:04;;;;;;;2.10;1.75;;;17.50;99.90;;;;;;5051456;28;20271;-57
2022/09/04 01:30:40;;;;;;;3.90;2.03;;;17.40;99.90;;;;;;5051443;28;20205;-56
2022/09/04 01:33:15;;;;;;;2.85;2.00;;;17.40;99.90;;;;;;5051398;28;20205;-57
2022/09/04 01:35:50;;;;;;;2.20;2.00;;;17.30;99.90;;;;;;5051360;28;20220;-56
2022/09/04 01:38:22;;;;;;;2.42;1.92;;;17.20;99.90;;;;;;5051569;28;20201;-58
2022/09/04 01:40:56;;;;;;;2.63;2.10;;;17.20;99.90;;;;;;5051552;28;20209;-58
2022/09/04 01:43:25;;;;;;;3.70;2.00;;;17.10;99.90;;;;;;5051324;28;20218;-58
2022/09/04 01:46:13;;;;;;;2.20;2.00;;;17.00;99.90;;;;;;5050891;28;20682;-57
2022/09/04 01:48:47;;;;;;;3.42;2.50;;;17.00;99.90;;;;;;5051565;28;20230;-56
2022/09/04 01:51:22;;;;;;;2.40;2.20;;;17.00;99.90;;;;;;5051317;28;20210;-58
2022/09/04 01:54:02;;;;;;;2.33;2.13;;;17.00;99.90;;;;;;5051120;28;20205;-56
2022/09/04 01:56:37;;;;;;;3.40;2.40;;;16.90;99.90;;;;;;5051372;28;20236;-57
2022/09/04 01:59:14;;;;;;;3.00;2.00;;;16.90;99.90;;;;;;5052915;28;20304;-57
2022/09/04 02:01:49;;;;;;;2.97;2.60;;;16.90;99.90;;;;;;5055070;28;20213;-56
2022/09/04 02:04:26;;;;;;;2.50;2.30;;;16.80;99.90;;;;;;5054576;28;20727;-57
2022/09/04 02:07:00;;;;;;;2.65;2.28;;;16.80;99.90;;;;;;5054838;28;20641;-56
2022/09/04 02:09:36;;;;;;;2.40;2.20;;;16.80;99.90;;;;;;5054972;28;20209;-56
2022/09/04 02:12:10;;;;;;;2.77;1.90;;;16.80;99.90;;;;;;5054844;28;20209;-56
2022/09/04 02:14:44;;;;;;;2.90;2.30;;;16.70;99.90;;;;;;5054493;28;20197;-56
2022/09/04 02:17:17;;;;;;;2.38;2.17;;;16.70;99.90;;;;;;5054177;28;20229;-56
2022/09/04 02:20:01;;;;;;;2.57;2.37;;;16.70;99.90;;;;;;5054820;28;20210;-56
2022/09/04 02:22:34;;;;;;;3.75;2.50;;;16.70;99.90;;;;;;5054692;28;20205;-58
2022/09/04 02:25:09;;;;;;;2.30;2.10;;;16.70;99.90;;;;;;5054283;28;20212;-56
2022/09/04 02:27:46;;;;;;;3.35;2.40;;;16.70;99.90;;;;;;5054261;28;20283;-56
2022/09/04 02:30:17;;;;;;;3.87;2.57;;;16.70;99.90;;;;;;5054483;28;20232;-56
2022/09/04 02:32:53;;;;;;;3.67;2.50;;;16.70;99.90;;;;;;5054443;28;20201;-56
2022/09/04 02:35:28;;;;;;;3.08;2.45;;;16.70;99.90;;;;;;5054112;28;20205;-56
2022/09/04 02:38:07;;;;;;;3.53;2.05;;;16.70;99.90;;;;;;5054463;28;20229;-56
2022/09/04 02:40:42;;;;;;;3.30;1.97;;;16.70;99.90;;;;;;5054976;28;20212;-56
2022/09/04 02:43:24;;;;;;;2.50;2.20;;;16.70;99.90;;;;;;5055114;28;20221;-56
2022/09/04 02:46:00;;;;;;;2.58;2.20;;;16.70;99.90;;;;;;5054976;28;20205;-57
2022/09/04 02:48:34;;;;;;;2.78;2.40;;;16.60;99.90;;;;;;5054286;28;20630;-56
2022/09/04 02:51:14;;;;;;;2.55;2.35;;;16.60;99.90;;;;;;5054187;28;20291;-56
2022/09/04 02:53:49;;;;;;;5.07;2.75;;;16.60;99.90;;;;;;5054244;28;20205;-56
2022/09/04 02:56:30;;;;;;;3.75;2.53;;;16.50;99.90;;;;;;5053988;28;20233;-55
2022/09/04 02:59:14;;;;;;;2.85;2.50;;;16.40;99.90;;;;;;5053830;28;20209;-55
2022/09/04 03:01:47;;;;;;;2.67;2.47;;;16.40;99.90;;;;;;5053829;28;20206;-55
2022/09/04 03:04:21;;;;;;;4.75;2.65;;;16.40;99.90;;;;;;5053684;28;20212;-55
2022/09/04 03:06:52;;;;;;;3.10;2.80;;;16.40;99.90;;;;;;5053686;28;20593;-57
2022/09/04 03:09:25;;;;;;;2.60;2.40;;;16.30;99.90;;;;;;5053703;28;20355;-56
2022/09/04 03:11:59;;;;;;;3.00;2.70;;;16.30;99.90;;;;;;5052982;28;20209;-55
2022/09/04 03:14:33;;;;;;;3.60;2.80;;;16.30;99.90;;;;;;5053603;28;20263;-56
2022/09/04 03:17:11;;;;;;;2.90;2.43;;;16.20;99.90;;;;;;5053208;28;20233;-56
2022/09/04 03:19:46;;;;;;;3.33;2.93;;;16.20;99.90;;;;;;5053667;28;20209;-55
2022/09/04 03:22:18;;;;;;;4.10;3.00;;;16.20;99.90;;;;;;5053821;28;20240;-56
2022/09/04 03:25:03;;;;;;;3.42;2.78;;;16.10;99.90;;;;;;5053202;28;20209;-56
2022/09/04 03:27:32;;;;;;;3.22;2.63;;;16.00;99.90;;;;;;5053396;28;20291;-56
2022/09/04 03:30:04;;;;;;;2.63;2.40;;;15.90;99.90;;;;;;5053236;28;20296;-56
2022/09/04 03:32:39;;;;;;;2.78;2.47;;;15.90;99.90;;;;;;5053289;28;20669;-57
2022/09/04 03:35:15;;;;;;;2.67;2.47;;;15.90;99.90;;;;;;5052989;28;20266;-57
2022/09/04 03:37:52;;;;;;;3.05;2.70;;;15.90;99.90;;;;;;5053030;28;20251;-55
2022/09/04 03:40:33;;;;;;;4.20;2.47;;;15.90;99.90;;;;;;5052998;28;20212;-56
2022/09/04 03:43:29;;;;;;;4.97;2.80;;;15.90;99.90;;;;;;5053233;28;20209;-56
2022/09/04 03:46:03;;;;;;;3.15;2.30;;;15.90;99.90;;;;;;5052633;28;20215;-57
2022/09/04 03:48:48;;;;;;;2.67;2.47;;;15.90;99.90;;;;;;5052885;28;20232;-56
2022/09/04 03:51:23;;;;;;;2.70;2.50;;;15.90;99.90;;;;;;5052986;28;20210;-56
2022/09/04 03:54:00;;;;;;;4.43;2.53;;;15.90;99.90;;;;;;5053044;28;20216;-56
2022/09/04 03:56:57;;;;;;;2.97;2.63;;;15.90;99.90;;;;;;5052839;28;20225;-56
2022/09/04 03:59:38;;;;;;;2.60;2.40;;;15.90;99.90;;;;;;5037094;28;20232;-56
2022/09/04 04:02:16;;;;;;;2.47;2.27;;;15.90;99.90;;;;;;5052668;28;20216;-56
2022/09/04 04:05:02;;;;;;;2.90;2.30;;;15.90;99.90;;;;;;5052322;28;20205;-57
2022/09/04 04:07:38;;;;;;;2.70;2.30;;;15.80;99.90;;;;;;5052274;28;20601;-57
2022/09/04 04:10:18;;;;;;;2.37;2.17;;;15.80;99.90;;;;;;5052315;28;20687;-57
2022/09/04 04:13:03;;;;;;;3.50;2.57;;;15.80;99.90;;;;;;5052553;28;20210;-57
2022/09/04 04:15:45;;;;;;;5.30;2.97;;;15.80;99.90;;;;;;5052653;28;20209;-56
2022/09/04 04:18:34;;;;;;;2.90;2.70;;;15.80;99.90;;;;;;5100652;22;20227;-58
2022/09/04 04:21:12;;;;;;;3.20;2.63;;;15.80;99.90;;;;;;5088667;28;20269;-59
2022/09/04 04:24:01;;;;;;;3.77;2.50;;;15.70;99.90;;;;;;5092955;28;20200;-59
2022/09/04 04:26:39;;;;;;;4.10;2.60;;;15.80;99.90;;;;;;5092980;28;20204;-58
2022/09/04 04:29:39;;;;;;;2.73;2.53;;;15.80;99.90;;;;;;5092927;28;20218;-58
2022/09/04 04:32:26;;;;;;;2.90;2.60;;;15.70;99.90;;;;;;5092892;28;20200;-58
2022/09/04 04:35:03;;;;;;;2.83;2.60;;;15.80;99.90;;;;;;5092693;28;20556;-58
2022/09/04 04:37:42;;;;;;;4.90;2.70;;;15.70;99.90;;;;;;5092677;28;20639;-59
2022/09/04 04:40:20;;;;;;;3.00;2.70;;;15.70;99.90;;;;;;5092706;28;20208;-58
2022/09/04 04:42:55;;;;;;;2.93;2.63;;;15.70;99.90;;;;;;5092680;28;20204;-59
2022/09/04 04:48:38;;;;;;;2.90;2.60;;;15.70;99.90;;;;;;5092417;28;20227;-59
2022/09/04 04:51:19;;;;;;;2.90;2.67;;;15.70;99.90;;;;;;5092770;28;20212;-59
2022/09/04 04:53:55;;;;;;;2.90;2.57;;;15.60;99.90;;;;;;5092851;28;20215;-59
2022/09/04 04:56:29;;;;;;;2.93;2.63;;;15.60;99.90;;;;;;5092379;28;20298;-59
2022/09/04 04:59:08;;;;;;;2.87;2.67;;;15.60;99.90;;;;;;5092873;28;20706;-60
2022/09/04 05:01:44;;;;;;;2.77;2.50;;;15.70;99.90;;;;;;5092540;28;20208;-59
2022/09/04 05:04:20;;;;;;;3.00;2.50;;;15.70;99.90;;;;;;5092818;28;20208;-59
2022/09/04 05:06:52;;;;;;;4.23;3.00;;;15.80;99.90;;;;;;5092550;28;20223;-59
2022/09/04 05:09:28;;;;;;;3.13;2.67;;;15.80;99.90;;;;;;5092434;28;20208;-59
2022/09/04 05:12:02;;;;;;;2.93;2.63;;;15.90;99.90;;;;;;5092214;28;20214;-58
2022/09/04 05:14:38;;;;;;;4.15;2.67;;;15.90;99.90;;;;;;5091883;28;20679;-59
2022/09/04 05:17:14;;;;;;;2.57;2.27;;;15.90;99.90;;;;;;5092329;28;20319;-58
2022/09/04 05:19:47;;;;;;;2.50;2.30;;;15.90;99.90;;;;;;5092324;28;20623;-59
2022/09/04 05:22:22;;;;;;;2.67;2.47;;;16.00;99.90;;;;;;5092227;28;20200;-58
2022/09/04 05:25:01;;;;;;;2.53;2.30;;;16.10;99.90;;;;;;5091906;28;20204;-60
2022/09/04 05:27:44;;;;;;;2.33;2.13;;;16.10;99.90;;;;;;5092244;28;20595;-59
2022/09/04 05:30:16;;;;;;;3.60;2.40;;;16.10;99.90;;;;;;5092355;28;20212;-59
2022/09/04 05:32:53;;;;;;;2.40;2.20;;;16.20;99.90;;;;;;5092169;28;20212;-59
2022/09/04 05:35:26;;;;;;;4.70;2.20;;;16.30;99.90;;;;;;5095926;28;20204;-59
2022/09/04 05:38:00;;;;;;;2.40;2.20;;;16.40;99.90;;;;;;5096067;28;20236;-59
2022/09/04 05:40:36;;;;;;;2.07;1.93;;;16.50;99.90;;;;;;5095966;28;20217;-60
2022/09/04 05:43:14;;;;;;;2.40;2.00;;;17.20;99.90;;;;;;5095903;28;20574;-59
2022/09/04 05:45:52;;;;;;;1.73;1.58;;;18.60;99.90;;;;;;5095900;28;20208;-59
2022/09/04 05:48:24;;;;;;;2.08;1.60;;;20.20;99.90;;;;;;5095843;28;20223;-59
2022/09/04 05:51:15;;;;;;;1.80;1.60;;;21.60;99.90;;;;;;5096155;28;20300;-60
2022/09/04 05:54:03;;;;;;;2.08;1.40;;;22.70;99.90;;;;;;5096324;28;20214;-59
2022/09/04 05:56:59;;;;;;;2.05;1.40;;;24.00;99.90;;;;;;5096088;28;20226;-60
2022/09/04 05:59:44;;;;;;;2.78;1.42;;;25.20;99.90;;;;;;5096378;28;20215;-59
2022/09/04 06:02:32;;;;;;;1.60;1.38;;;26.10;99.90;;;;;;5096446;28;20215;-58
2022/09/04 06:05:20;;;;;;;1.40;1.30;;;27.00;99.90;;;;;;5095682;28;20211;-57
2022/09/04 06:07:55;;;;;;;2.13;1.40;;;27.70;99.90;;;;;;5095708;28;20714;-57
2022/09/04 06:10:29;;;;;;;4.38;2.35;;;28.20;99.90;;;;;;5095523;28;20235;-59
2022/09/04 06:13:17;;;;;;;2.90;2.60;;;28.70;99.90;;;;;;5095861;28;20205;-57
2022/09/04 06:15:56;;;;;;;3.67;1.90;;;29.10;99.90;;;;;;5095454;28;20504;-58
2022/09/04 06:18:44;;;;;;;1.88;1.58;;;29.60;99.90;;;;;;5095130;28;20236;-57
2022/09/04 06:21:41;;;;;;;1.52;1.40;;;30.20;99.80;;;;;;5095694;28;20204;-57
2022/09/04 06:24:24;;;;;;;1.63;1.52;;;30.70;97.80;;;;;;5091841;28;20208;-57
2022/09/04 06:27:05;;;;;;;2.60;1.40;;;31.00;96.10;;;;;;5096262;28;20224;-63
2022/09/04 06:30:03;;;;;;;1.88;1.50;;;31.20;95.00;;;;;;5097995;28;20212;-60
2022/09/04 06:33:06;;;;;;;6.28;1.70;;;31.10;94.40;;;;;;5097146;28;20208;-61
2022/09/04 06:35:51;;;;;;;2.90;1.50;;;31.00;94.40;;;;;;5097010;28;20192;-62
2022/09/04 06:38:33;;;;;;;1.38;1.27;;;31.00;94.20;;;;;;5096566;28;20692;-62
2022/09/04 06:41:25;;;;;;;1.77;1.35;;;31.30;93.60;;;;;;5096563;28;20208;-62
2022/09/04 06:44:00;;;;;;;1.90;1.40;;;31.70;92.30;;;;;;5096626;28;20264;-62
2022/09/04 06:46:38;;;;;;;1.88;1.38;;;32.10;91.70;;;;;;5096271;28;20214;-62
2022/09/04 06:49:12;;;;;;;1.35;1.25;;;32.30;90.70;;;;;;5097101;28;20197;-62
2022/09/04 06:51:53;;;;;;;3.42;1.33;;;32.70;89.90;;;;;;5097290;28;20227;-62
2022/09/04 06:54:36;;;;;;;2.42;1.35;;;33.00;89.00;;;;;;5097153;28;20208;-63
2022/09/04 06:57:34;;;;;;;2.92;1.70;;;33.20;86.60;;;;;;5096907;28;20356;-62
2022/09/04 07:00:07;;;;;;;2.05;1.30;;;33.50;85.10;;;;;;5096504;28;20209;-63
2022/09/04 07:03:11;;;;;;;1.30;1.20;;;33.90;83.10;;;;;;5095950;28;20712;-63
2022/09/04 07:05:45;;;;;;;3.17;1.70;;;34.00;81.90;;;;;;5095741;28;20210;-63
2022/09/04 07:08:23;;;;;;;2.20;1.52;;;34.20;80.60;;;;;;5096310;28;20593;-61
2022/09/04 07:11:03;;;;;;;3.60;1.40;;;34.30;80.50;;;;;;5095735;28;20208;-61
2022/09/04 07:13:46;;;;;;;1.45;1.27;;;34.50;78.80;;;;;;5095237;28;20664;-61
2022/09/04 07:16:32;;;;;;;1.65;1.40;;;34.80;76.60;;;;;;5095146;28;20207;-61
2022/09/04 07:19:26;;;;;;;3.65;1.55;;;34.90;76.70;;;;;;5094974;28;20220;-61
2022/09/04 07:22:05;;;;;;;4.47;2.00;;;35.40;74.70;;;;;;5086446;28;20204;-61
2022/09/04 07:24:46;;;;;;;1.85;1.20;;;35.60;73.70;;;;;;5094852;28;20215;-63
2022/09/04 07:27:20;;;;;;;3.60;1.70;;;36.10;72.30;;;;;;5095209;28;20240;-63
2022/09/04 07:29:54;;;;;;;1.95;1.48;;;36.70;70.30;;;;;;5095109;28;20203;-62
2022/09/04 07:32:25;;;;;;;2.08;1.55;;;37.20;68.00;;;;;;5095414;28;20212;-62
2022/09/04 07:35:00;;;;;;;1.70;1.40;;;37.50;66.10;;;;;;5095544;28;20204;-63
2022/09/04 07:37:43;;;;;;;4.32;1.40;;;37.60;66.30;;;;;;5094988;28;20228;-61
2022/09/04 07:40:16;;;;;;;1.95;1.75;;;37.90;63.60;;;;;;5095302;28;20434;-62
2022/09/04 07:42:49;;;;;;;3.08;2.70;;;38.20;63.60;;;;;;5095141;28;20204;-63
2022/09/04 07:45:28;;;;;;;2.47;1.50;;;38.60;62.00;;;;;;5094459;28;20667;-62
2022/09/04 07:48:06;;;;;;;2.05;1.25;;;38.70;60.40;;;;;;5094947;28;20220;-63
2022/09/04 07:50:39;;;;;;;1.58;1.48;;;39.00;59.70;;;;;;5095013;28;20208;-62
2022/09/04 07:53:23;;;;;;;2.08;1.45;;;39.40;58.40;;;;;;5095042;28;20223;-62
2022/09/04 07:55:52;;;;;;;1.90;1.45;;;39.60;57.90;;;;;;5094108;28;20215;-62
2022/09/04 07:58:44;;;;;;;3.30;2.13;;;39.60;57.20;;;;;;5094470;28;20235;-62
2022/09/04 08:01:31;;;;;;;3.05;2.53;;;39.50;57.00;;;;;;5095237;28;20290;-62
2022/09/04 08:04:13;;;;;;;3.63;3.22;;;39.20;56.90;;;;;;5095047;28;20245;-62
2022/09/04 08:06:48;;;;;;;3.03;2.13;;;39.10;56.90;;;;;;5094655;28;20227;-62
2022/09/04 08:09:50;;;;;;;2.03;1.60;;;38.60;57.50;;;;;;5094821;28;20199;-63
2022/09/04 08:12:51;;;;;;;2.00;1.80;;;37.30;59.20;;;;;;5090906;28;20212;-63
2022/09/04 08:15:20;;;;;;;2.22;1.83;;;35.00;63.60;;;;;;5094642;28;20236;-62
2022/09/04 08:18:06;;;;;;;2.00;1.70;;;33.40;67.20;;;;;;5094358;28;20231;-63
2022/09/04 08:20:46;;;;;;;2.78;1.38;;;32.00;70.90;;;;;;5094861;28;20204;-62
2022/09/04 08:23:35;;;;;;;1.70;1.60;;;30.80;74.90;;;;;;5093979;28;20204;-62
2022/09/04 08:26:14;;;;;;;6.05;2.08;;;29.70;78.90;;;;;;5093890;28;20208;-62
2022/09/04 08:28:59;;;;;;;3.13;2.03;;;28.90;82.70;;;;;;5094081;28;20239;-61
2022/09/04 08:31:30;;;;;;;1.85;1.67;;;28.20;86.00;;;;;;5094471;28;20200;-61
2022/09/04 08:34:47;;;;;;;7.00;3.35;;;27.70;88.90;;;;;;5094340;28;20211;-61
2022/09/04 08:37:24;;;;;;;13.63;3.95;;;27.30;90.70;;;;;;5051587;28;20318;-60
2022/09/04 08:40:13;;;;;;;4.70;3.78;;;26.70;92.20;;;;;;5051592;28;20208;-61
2022/09/04 08:43:15;;;;;;;4.65;3.42;;;26.40;93.40;;;;;;5080702;28;20230;-62
2022/09/04 08:46:14;;;;;;;3.08;2.05;;;26.10;94.30;;;;;;5094972;28;20188;-62
2022/09/04 08:49:10;;;;;;;3.22;2.70;;;25.60;96.10;;;;;;5094171;28;20594;-62
2022/09/04 08:52:09;;;;;;;3.25;2.30;;;25.40;97.30;;;;;;5094068;28;20210;-63
2022/09/04 08:55:20;;;;;;;3.63;2.83;;;25.20;98.60;;;;;;5093419;28;20633;-62
2022/09/04 08:58:21;;;;;;;4.03;1.88;;;24.90;99.90;;;;;;5085163;28;20630;-59
2022/09/04 09:01:09;;;;;;;3.90;1.65;;;24.90;99.90;;;;;;5092254;28;20209;-60
2022/09/04 09:04:11;;;;;;;2.80;2.10;;;25.00;99.90;;;;;;5092546;28;20563;-60
2022/09/04 09:07:12;;;;;;;1.77;1.50;;;24.90;99.90;;;;;;5092359;28;20203;-59
2022/09/04 09:10:26;;;;;;;2.40;1.52;;;24.80;99.90;;;;;;5095260;28;20224;-59
2022/09/04 09:13:17;;;;;;;2.15;1.70;;;24.90;99.90;;;;;;5096791;28;20200;-59
2022/09/04 09:16:12;;;;;;;6.22;2.75;;;25.00;99.90;;;;;;5096772;28;20208;-61
2022/09/04 09:18:52;;;;;;;2.28;2.00;;;25.20;99.90;;;;;;5097130;28;20730;-61
2022/09/04 09:21:32;;;;;;;2.55;1.55;;;25.50;99.90;;;;;;5097108;28;20210;-60
2022/09/04 09:24:29;;;;;;;5.63;2.92;;;25.70;99.90;;;;;;5096809;28;20218;-61
2022/09/04 09:27:15;;;;;;;1.98;1.10;;;25.80;99.90;;;;;;5096957;28;20609;-61
2022/09/04 09:30:01;;;;;;;7.72;3.80;;;25.80;99.90;;;;;;5097200;28;20311;-61
2022/09/04 09:33:18;;;;;;;4.93;2.35;;;25.90;99.90;;;;;;5097001;28;20200;-61
2022/09/04 09:36:19;;;;;;;1.55;1.45;;;26.00;99.90;;;;;;5079703;28;20226;-60
2022/09/04 09:39:18;;;;;;;2.50;1.50;;;26.20;99.90;;;;;;5094528;28;20714;-61
2022/09/04 09:42:16;;;;;;;2.35;1.30;;;26.30;99.90;;;;;;5078494;28;20203;-61
2022/09/04 09:45:13;;;;;;;4.03;1.20;;;26.50;99.90;;;;;;5100415;28;20208;-61
2022/09/04 09:48:14;;;;;;;1.95;1.30;;;26.50;99.40;;;;;;5105651;28;20596;-61
2022/09/04 09:51:03;;;;;;;4.88;2.67;;;26.30;99.00;;;;;;5106453;28;20211;-61
2022/09/04 09:54:10;;;;;;;2.08;1.35;;;26.30;99.50;;;;;;5100554;28;20685;-61
2022/09/04 09:57:06;;;;;;;5.65;2.08;;;26.30;99.90;;;;;;5097478;28;20230;-61
2022/09/04 10:00:05;;;;;;;1.45;1.00;;;26.60;99.80;;;;;;5096911;28;20200;-61
2022/09/04 10:03:13;;;;;;;1.73;1.50;;;26.80;98.70;;;;;;5095922;28;20212;-62
2022/09/04 10:06:31;;;;;;;2.45;1.55;;;27.20;97.60;;;;;;5097218;28;20208;-60
2022/09/04 10:09:40;;;;;;;3.17;1.85;;;27.50;96.60;;;;;;5054436;28;20309;-61
2022/09/04 10:12:31;;;;;;;1.80;1.58;;;27.90;95.90;;;;;;5054826;28;20209;-60
2022/09/04 10:15:27;;;;;;;2.65;1.10;;;28.10;95.60;;;;;;5097718;28;20212;-60
2022/09/04 10:18:37;;;;;;;1.45;0.88;;;28.20;94.30;;;;;;5120600;22;20223;-55
2022/09/04 10:21:37;;;;;;;2.15;1.10;;;28.40;93.80;;;;;;5015624;28;20258;-59
2022/09/04 10:24:48;;;;;;;4.57;0.98;;;28.40;93.70;;;;;;5095022;28;20227;-55
2022/09/04 10:27:52;;;;;;;2.38;1.20;;;28.40;93.50;;;;;;5095084;28;20254;-55
2022/09/04 10:30:21;;;;;;;2.80;1.17;;;28.10;93.40;;;;;;5094841;28;20224;-55
2022/09/04 10:33:11;;;;;;;4.03;1.10;;;28.10;93.90;;;;;;5094630;28;20211;-55
2022/09/04 10:35:53;;;;;;;2.92;1.20;;;28.10;93.00;;;;;;5094637;28;20205;-54
2022/09/04 10:38:34;;;;;;;1.65;1.10;;;28.20;92.60;;;;;;5094323;28;20707;-54
2022/09/04 10:41:37;;;;;;;3.30;2.53;;;28.40;92.00;;;;;;5094482;28;20200;-54
2022/09/04 10:44:36;;;;;;;2.63;1.63;;;28.40;91.90;;;;;;5094397;28;20204;-55
2022/09/04 10:47:17;;;;;;;5.32;1.27;;;28.40;91.30;;;;;;5094328;28;20278;-55
2022/09/04 10:50:15;;;;;;;3.85;1.48;;;28.50;91.00;;;;;;5094628;28;20224;-54
2022/09/04 10:53:20;;;;;;;1.65;1.08;;;28.50;91.60;;;;;;5094607;28;20208;-55
2022/09/04 10:56:05;;;;;;;1.48;1.20;;;28.80;90.70;;;;;;5093866;28;20246;-56
2022/09/04 10:59:01;;;;;;;2.72;1.20;;;29.00;90.60;;;;;;5094293;28;20259;-55
2022/09/04 11:01:59;;;;;;;2.30;1.38;;;29.10;90.50;;;;;;5094323;28;20230;-55
2022/09/04 11:04:45;;;;;;;2.63;1.42;;;29.30;90.40;;;;;;5094332;28;20258;-55
2022/09/04 11:07:30;;;;;;;1.85;0.90;;;29.50;89.70;;;;;;5093844;28;20251;-55
2022/09/04 11:10:27;;;;;;;2.55;1.40;;;29.40;85.90;;;;;;5093880;28;20878;-55
2022/09/04 11:13:36;;;;;;;0.82;0.70;;;29.20;84.50;;;;;;5094035;28;20215;-55
2022/09/04 11:16:31;;;;;;;1.83;1.00;;;29.00;82.10;;;;;;5030857;28;20246;-55
2022/09/04 11:19:51;;;;;;;1.88;1.10;;;29.00;81.90;;;;;;5031340;28;20287;-55
2022/09/04 11:23:03;;;;;;;2.25;1.58;;;28.90;80.70;;;;;;5054707;28;20579;-54
2022/09/04 11:26:09;;;;;;;1.60;1.10;;;29.00;82.80;;;;;;5057586;28;20204;-55
2022/09/04 11:29:05;;;;;;;1.20;1.10;;;29.00;83.40;;;;;;5093373;28;20227;-55
2022/09/04 11:31:57;;;;;;;1.42;0.80;;;28.90;83.30;;;;;;5092674;28;20210;-55
2022/09/04 11:35:03;;;;;;;1.02;0.70;;;28.80;83.20;;;;;;5093515;28;20254;-55
2022/09/04 11:38:07;;;;;;;2.25;0.90;;;28.50;81.30;;;;;;5092972;28;20219;-56
2022/09/04 11:41:15;;;;;;;1.30;1.00;;;28.30;80.80;;;;;;5093358;28;20204;-55
2022/09/04 11:44:06;;;;;;;1.83;0.90;;;28.30;79.90;;;;;;5067915;28;20291;-54
2022/09/04 11:47:10;;;;;;;2.40;0.77;;;28.30;79.20;;;;;;5093232;28;20641;-54
2022/09/04 11:49:53;;;;;;;1.92;0.80;;;28.00;79.70;;;;;;5092953;28;20714;-55
2022/09/04 11:52:34;;;;;;;1.30;0.77;;;27.60;78.40;;;;;;5093418;28;20295;-55
2022/09/04 11:55:24;;;;;;;2.95;1.00;;;27.50;77.10;;;;;;5093056;28;20200;-56
2022/09/04 11:58:07;;;;;;;1.80;0.90;;;27.50;76.40;;;;;;5092811;28;20711;-54
2022/09/04 12:00:46;;;;;;;1.58;0.82;;;27.70;75.40;;;;;;5093215;28;20648;-58
2022/09/04 12:03:35;;;;;;;1.55;1.08;;;27.70;74.80;;;;;;5093110;28;20211;-54
2022/09/04 12:06:22;;;;;;;1.27;0.80;;;27.90;77.50;;;;;;5062043;28;20204;-55
2022/09/04 12:09:23;;;;;;;1.45;0.82;;;28.00;77.50;;;;;;5092610;28;20282;-55
2022/09/04 12:12:10;;;;;;;2.25;0.90;;;27.90;78.30;;;;;;5056499;28;20212;-55
2022/09/04 12:15:00;;;;;;;2.05;1.00;;;28.10;78.00;;;;;;5092606;28;20204;-56
2022/09/04 12:18:15;;;;;;;1.65;1.00;;;28.10;77.40;;;;;;5092602;28;20278;-55
2022/09/04 12:21:22;;;;;;;3.25;0.75;;;28.00;78.20;;;;;;5092699;28;20227;-54
2022/09/04 12:24:27;;;;;;;1.88;1.10;;;27.90;79.90;;;;;;5092903;28;20215;-55
2022/09/04 12:27:43;;;;;;;2.53;1.20;;;27.70;81.30;;;;;;5064743;28;20207;-55
2022/09/04 12:30:19;;;;;;;2.20;1.40;;;27.60;81.50;;;;;;5047010;28;20225;-55
2022/09/04 12:33:15;;;;;;;1.77;1.00;;;27.50;81.80;;;;;;5092664;28;20215;-55
2022/09/04 12:36:13;;;;;;;1.80;1.00;;;27.60;81.20;;;;;;5092050;28;20210;-55
2022/09/04 12:39:01;;;;;;;1.58;1.02;;;27.90;80.50;;;;;;5080199;28;20311;-55
2022/09/04 12:41:35;;;;;;;1.30;0.82;;;28.10;79.90;;;;;;5092417;28;20660;-55
2022/09/04 12:44:11;;;;;;;1.35;0.85;;;28.20;78.50;;;;;;5092034;28;20261;-55
2022/09/04 12:46:57;;;;;;;2.13;1.58;;;28.30;78.30;;;;;;5092180;28;20233;-56
2022/09/04 12:49:52;;;;;;;1.08;0.98;;;28.40;75.30;;;;;;5092126;28;20281;-55
2022/09/04 12:52:32;;;;;;;0.90;0.70;;;28.50;74.60;;;;;;5092150;28;20294;-55
2022/09/04 12:55:10;;;;;;;1.90;0.70;;;28.70;74.30;;;;;;5091846;28;20200;-57
2022/09/04 12:57:46;;;;;;;1.80;0.80;;;28.90;71.60;;;;;;5092370;28;20585;-55
2022/09/04 13:00:16;;;;;;;1.35;0.85;;;29.00;70.60;;;;;;5092443;28;20204;-55
2022/09/04 13:03:04;;;;;;;0.90;0.77;;;29.20;71.20;;;;;;5092380;28;20207;-55
2022/09/04 13:05:52;;;;;;;2.08;0.70;;;29.40;69.20;;;;;;5092531;28;20204;-55
2022/09/04 13:08:33;;;;;;;2.85;0.75;;;29.60;70.50;;;;;;5092246;28;20256;-54
2022/09/04 13:11:08;;;;;;;1.10;0.90;;;29.60;70.40;;;;;;5092137;28;20227;-55
2022/09/04 13:13:46;;;;;;;1.92;0.90;;;29.70;70.00;;;;;;5092358;28;20203;-54
2022/09/04 13:16:20;;;;;;;1.25;1.00;;;29.50;70.40;;;;;;5092010;28;20226;-54
2022/09/04 13:18:59;;;;;;;1.65;0.80;;;29.50;72.10;;;;;;5091707;28;20276;-55
2022/09/04 13:21:45;;;;;;;2.28;0.88;;;29.70;70.40;;;;;;5091875;28;20693;-56
2022/09/04 13:24:24;;;;;;;1.17;0.70;;;29.80;69.40;;;;;;5091696;28;20691;-55
2022/09/04 13:27:03;;;;;;;5.43;1.10;;;29.80;70.20;;;;;;5091885;28;20208;-55
2022/09/04 13:29:39;;;;;;;1.90;1.20;;;29.90;69.00;;;;;;5091694;28;20230;-55
2022/09/04 13:32:47;;;;;;;1.98;1.00;;;30.00;68.80;;;;;;5091528;28;20211;-55
2022/09/04 13:35:20;;;;;;;1.38;0.95;;;30.30;68.60;;;;;;5075992;28;20211;-56
2022/09/04 13:38:05;;;;;;;1.00;0.68;;;30.50;67.10;;;;;;5091465;28;20228;-55
2022/09/04 13:40:46;;;;;;;2.50;0.95;;;30.80;66.40;;;;;;5091515;28;20577;-55
2022/09/04 13:43:36;;;;;;;4.38;1.40;;;31.00;65.90;;;;;;5091626;28;20200;-55
2022/09/04 13:46:07;;;;;;;2.10;1.20;;;31.10;65.70;;;;;;5091067;28;20652;-56
2022/09/04 13:48:41;;;;;;;1.65;1.05;;;30.90;65.80;;;;;;5091329;28;20621;-55
2022/09/04 13:51:12;;;;;;;1.65;1.20;;;30.80;65.70;;;;;;5091548;28;20232;-56
2022/09/04 13:53:53;;;;;;;2.03;0.80;;;30.70;65.90;;;;;;5091568;28;20204;-56
2022/09/04 13:56:28;;;;;;;0.80;0.60;;;30.60;66.20;;;;;;5094985;28;20220;-55
2022/09/04 13:58:59;;;;;;;0.90;0.70;;;30.60;65.10;;;;;;5095207;28;20223;-55
2022/09/04 14:01:28;;;;;;;1.25;0.93;;;30.50;64.30;;;;;;5095596;28;20257;-56
2022/09/04 14:03:59;;;;;;;5.53;4.05;;;30.50;65.90;;;;;;5095416;28;20219;-55
2022/09/04 14:06:29;;;;;;;1.40;0.70;;;30.50;64.60;;;;;;5095079;28;20209;-56
2022/09/04 14:09:02;;;;;;;1.05;0.80;;;30.50;64.20;;;;;;5095089;28;20707;-55
2022/09/04 14:11:56;;;;;;;3.53;1.98;;;30.50;64.90;;;;;;5095147;28;20521;-55
2022/09/04 14:14:47;;;;;;;3.58;2.35;;;30.40;65.70;;;;;;5095132;28;20698;-55
2022/09/04 14:17:25;;;;;;;3.83;1.75;;;30.40;65.20;;;;;;5094568;28;20236;-61